Time;durP1;ratioP1;P1;durP2;ratioP2;P2;SDS_P1;SDS_P2;PMS_P1;PMS_P2;Temp;Humidity;BMP_temperature;BMP_pressure;BME280_temperature;BME280_humidity;BME280_pressure;Samples;Min_cycle;Max_cycle;Signal;HPM_P1;HPM_P2
2021/06/19 00:00:06;;;;;;;4.75;2.95;;;;;;;19.45;48.86;100744.69;5112105;28;20032;-56
2021/06/19 00:02:32;;;;;;;4.78;3.58;;;;;;;19.80;48.77;100806.19;5113920;28;20138;-58
2021/06/19 00:04:57;;;;;;;8.30;3.40;;;;;;;19.82;49.12;100803.34;5113522;28;20189;-54
2021/06/19 00:07:23;;;;;;;6.35;3.35;;;;;;;19.70;48.82;100791.88;5113491;28;21093;-54
2021/06/19 00:09:48;;;;;;;6.15;3.00;;;;;;;19.80;48.77;100811.63;5112157;28;20039;-54
2021/06/19 00:12:16;;;;;;;6.90;3.63;;;;;;;19.79;48.83;100806.38;5112846;27;20052;-56
2021/06/19 00:14:42;;;;;;;5.50;3.85;;;;;;;19.79;48.82;100809.94;5113307;28;20050;-56
2021/06/19 00:17:07;;;;;;;5.50;3.70;;;;;;;19.73;49.08;100804.28;5113644;28;20477;-56
2021/06/19 00:19:32;;;;;;;5.20;3.53;;;;;;;19.69;49.08;100802.91;5113324;28;20042;-57
2021/06/19 00:21:58;;;;;;;5.63;3.42;;;;;;;19.73;49.12;100810.56;5107228;28;20115;-56
2021/06/19 00:24:23;;;;;;;6.72;3.47;;;;;;;19.71;49.19;100822.59;5092970;28;20031;-56
2021/06/19 00:26:51;;;;;;;7.30;3.85;;;;;;;19.55;49.69;100802.47;5092780;28;20131;-55
2021/06/19 00:29:17;;;;;;;4.85;3.60;;;;;;;19.19;49.75;100748.25;5092421;28;20032;-56
2021/06/19 00:31:46;;;;;;;4.85;3.78;;;;;;;19.59;50.47;100824.72;5092827;28;20028;-54
2021/06/19 00:34:12;;;;;;;4.55;3.33;;;;;;;19.58;49.96;100831.19;5092870;28;20032;-53
2021/06/19 00:36:38;;;;;;;5.35;3.80;;;;;;;19.55;50.21;100835.06;5092521;28;20036;-56
2021/06/19 00:39:05;;;;;;;5.97;3.70;;;;;;;19.56;50.09;100830.47;5092446;28;20039;-57
2021/06/19 00:41:31;;;;;;;5.80;3.47;;;;;;;19.08;50.07;100735.75;5093071;28;20047;-57
2021/06/19 00:43:57;;;;;;;3.97;3.53;;;;;;;19.53;49.89;100825.38;5092103;28;20119;-57
2021/06/19 00:46:22;;;;;;;6.22;5.30;;;;;;;19.43;50.06;100811.88;5089860;28;20038;-55
2021/06/19 00:48:48;;;;;;;7.88;4.88;;;;;;;19.48;50.14;100826.69;5092170;28;20035;-56
2021/06/19 00:51:13;;;;;;;8.95;7.10;;;;;;;19.47;50.48;100827.72;5092431;28;20036;-57
2021/06/19 00:53:39;;;;;;;7.50;4.80;;;;;;;19.36;50.74;100807.09;5092341;28;20090;-54
2021/06/19 00:56:04;;;;;;;7.18;5.88;;;;;;;19.42;50.30;100811.03;5092330;28;20035;-54
2021/06/19 00:58:32;;;;;;;7.30;5.07;;;;;;;19.47;50.71;100824.13;5092229;28;20136;-54
2021/06/19 01:00:57;;;;;;;7.68;5.05;;;;;;;19.36;50.28;100814.38;5074118;28;20535;-55
2021/06/19 01:03:23;;;;;;;7.80;4.78;;;;;;;19.36;50.31;100814.38;5092234;28;20150;-56
2021/06/19 01:05:50;;;;;;;6.68;5.13;;;;;;;19.44;50.50;100828.03;5092009;28;20058;-56
2021/06/19 01:08:16;;;;;;;8.95;5.13;;;;;;;19.44;50.45;100828.03;5092105;28;20507;-58
2021/06/19 01:10:42;;;;;;;7.97;5.38;;;;;;;19.33;50.33;100817.41;5092484;28;20071;-56
2021/06/19 01:13:07;;;;;;;8.55;5.90;;;;;;;19.46;50.31;100830.56;5092241;28;20050;-57
2021/06/19 01:15:33;;;;;;;11.00;7.03;;;;;;;19.49;50.30;100846.56;5091852;28;20040;-55
2021/06/19 01:17:58;;;;;;;12.57;7.07;;;;;;;19.41;50.27;100814.78;5091991;28;20027;-53
2021/06/19 01:20:25;;;;;;;8.93;6.75;;;;;;;19.52;50.35;100827.22;5092152;28;20367;-52
2021/06/19 01:22:54;;;;;;;13.43;7.25;;;;;;;19.48;50.47;100834.84;5105071;28;20024;-52
2021/06/19 01:25:22;;;;;;;9.63;7.30;;;;;;;19.47;50.48;100826.84;5111676;27;20031;-52
2021/06/19 01:27:50;;;;;;;10.40;7.55;;;;;;;19.56;50.46;100835.91;5112099;28;20478;-54
2021/06/19 01:30:16;;;;;;;12.85;7.03;;;;;;;19.56;50.52;100835.91;5112349;28;20502;-53
2021/06/19 01:32:42;;;;;;;11.52;7.47;;;;;;;19.32;50.36;100807.56;5112307;28;20367;-54
2021/06/19 01:35:09;;;;;;;12.98;7.10;;;;;;;19.60;50.16;100837.28;5112054;28;20134;-55
2021/06/19 01:37:37;;;;;;;14.13;7.60;;;;;;;19.61;50.11;100839.00;5112164;28;20130;-56
2021/06/19 01:40:07;;;;;;;12.80;6.95;;;;;;;19.64;50.37;100839.53;5112082;28;20035;-57
2021/06/19 01:42:34;;;;;;;9.00;6.55;;;;;;;19.68;49.79;100842.81;5111589;28;20039;-57
2021/06/19 01:44:59;;;;;;;9.40;6.40;;;;;;;19.70;49.85;100850.78;5111678;28;20879;-55
2021/06/19 01:47:27;;;;;;;12.15;6.90;;;;;;;19.73;49.87;100837.75;5111287;28;20081;-54
2021/06/19 01:49:53;;;;;;;8.95;5.90;;;;;;;19.78;49.99;100837.28;5111332;28;20443;-56
2021/06/19 01:52:19;;;;;;;12.55;6.28;;;;;;;19.81;49.93;100845.09;5111462;28;20042;-55
2021/06/19 01:54:45;;;;;;;9.70;5.82;;;;;;;19.84;49.83;100850.22;5111174;28;20376;-56
2021/06/19 01:57:10;;;;;;;8.27;4.82;;;;;;;19.87;49.40;100844.47;5110945;28;20588;-56
2021/06/19 01:59:36;;;;;;;10.65;5.60;;;;;;;19.81;49.15;100823.38;5111802;28;20035;-57
2021/06/19 02:02:03;;;;;;;9.52;5.70;;;;;;;19.87;49.14;100827.28;5110940;28;20055;-56
2021/06/19 02:04:34;;;;;;;7.68;5.30;;;;;;;20.02;49.04;100850.19;5111398;28;20103;-55
2021/06/19 02:06:59;;;;;;;7.72;5.63;;;;;;;20.06;49.11;100837.97;5111423;28;20047;-56
2021/06/19 02:09:25;;;;;;;8.27;5.78;;;;;;;20.08;48.98;100835.09;5110796;28;20035;-55
2021/06/19 02:11:50;;;;;;;6.40;4.75;;;;;;;20.13;48.71;100835.47;5111252;28;20078;-55
2021/06/19 02:14:16;;;;;;;9.50;5.05;;;;;;;20.23;48.53;100835.34;5111175;28;20071;-55
2021/06/19 02:16:44;;;;;;;9.45;4.50;;;;;;;20.40;48.69;100843.59;5110530;28;20588;-56
2021/06/19 02:19:11;;;;;;;7.57;4.25;;;;;;;20.56;47.95;100842.78;5110329;28;20028;-58
2021/06/19 02:21:36;;;;;;;6.13;4.07;;;;;;;20.82;47.31;100837.25;5108689;28;20108;-59
2021/06/19 02:24:02;;;;;;;7.47;4.03;;;;;;;21.08;46.56;100853.50;5090535;28;20024;-57
2021/06/19 02:26:28;;;;;;;6.50;4.13;;;;;;;21.39;45.88;100842.94;5090352;28;20097;-57
2021/06/19 02:28:53;;;;;;;7.38;3.50;;;;;;;21.65;45.24;100842.81;5089820;28;20031;-53
2021/06/19 02:31:20;;;;;;;6.03;4.13;;;;;;;22.00;44.75;100851.59;5090357;28;20032;-54
2021/06/19 02:33:47;;;;;;;6.40;3.45;;;;;;;22.13;44.17;100823.78;5090474;28;20487;-54
2021/06/19 02:36:14;;;;;;;6.95;3.50;;;;;;;22.64;42.96;100828.00;5090753;28;20035;-57
2021/06/19 02:38:39;;;;;;;6.03;3.80;;;;;;;23.15;42.46;100833.00;5090845;28;20372;-57
2021/06/19 02:41:05;;;;;;;7.07;3.55;;;;;;;23.40;41.09;100786.38;5090033;28;20043;-56
2021/06/19 02:43:30;;;;;;;5.53;3.55;;;;;;;24.11;39.81;100819.84;5090349;28;20032;-56
2021/06/19 02:45:59;;;;;;;4.75;3.22;;;;;;;24.47;39.36;100829.97;5090493;28;20398;-55
2021/06/19 02:48:26;;;;;;;7.13;3.67;;;;;;;24.65;38.79;100841.38;5090474;28;20398;-57
2021/06/19 02:50:51;;;;;;;6.00;3.55;;;;;;;24.68;38.46;100829.19;5089752;28;20043;-52
2021/06/19 02:53:17;;;;;;;4.60;3.42;;;;;;;24.71;38.16;100826.06;5089835;28;20036;-55
2021/06/19 02:55:44;;;;;;;7.82;3.80;;;;;;;24.82;38.10;100834.84;5090640;28;20039;-55
2021/06/19 02:58:11;;;;;;;5.28;3.42;;;;;;;25.15;37.62;100846.16;5090630;28;20035;-56
2021/06/19 03:00:38;;;;;;;6.95;3.50;;;;;;;25.61;36.89;100841.31;5089885;28;20043;-56
2021/06/19 03:03:05;;;;;;;6.18;3.65;;;;;;;26.17;35.67;100834.97;5089720;28;20925;-57
2021/06/19 03:05:32;;;;;;;5.60;3.33;;;;;;;26.72;35.05;100849.78;5089202;28;20487;-58
2021/06/19 03:08:00;;;;;;;8.45;3.63;;;;;;;27.21;34.03;100834.06;5090114;28;20039;-57
2021/06/19 03:10:28;;;;;;;4.07;3.28;;;;;;;27.63;33.32;100831.16;5089403;28;20491;-52
2021/06/19 03:12:54;;;;;;;7.47;3.75;;;;;;;27.98;32.88;100838.31;5089754;28;20056;-57
2021/06/19 03:15:20;;;;;;;6.80;3.60;;;;;;;28.29;31.74;100836.75;5090296;28;20058;-55
2021/06/19 03:17:45;;;;;;;6.18;3.78;;;;;;;28.53;31.38;100839.84;5089837;28;20055;-55
2021/06/19 03:20:14;;;;;;;5.88;3.58;;;;;;;28.68;31.39;100847.81;5089852;28;20431;-54
2021/06/19 03:22:50;;;;;;;4.85;3.42;;;;;;;28.89;30.23;100843.91;5100959;28;20032;-57
2021/06/19 03:25:27;;;;;;;7.47;3.65;;;;;;;29.03;30.29;100847.44;5110166;28;20036;-54
2021/06/19 03:27:53;;;;;;;9.07;3.80;;;;;;;29.10;30.41;100841.88;5110255;28;20065;-56
2021/06/19 03:30:20;;;;;;;6.72;3.40;;;;;;;29.30;29.79;100826.03;5109874;28;20047;-55
2021/06/19 03:32:47;;;;;;;10.40;4.00;;;;;;;29.83;29.06;100840.44;5109883;28;20067;-52
2021/06/19 03:35:13;;;;;;;8.10;4.22;;;;;;;30.28;28.48;100844.03;5110649;28;20506;-55
2021/06/19 03:37:40;;;;;;;7.43;3.60;;;;;;;30.78;27.85;100845.78;5109959;28;20085;-55
2021/06/19 03:40:08;;;;;;;7.25;3.90;;;;;;;31.23;26.99;100844.50;5109963;28;20974;-59
2021/06/19 03:42:34;;;;;;;9.07;3.92;;;;;;;31.22;26.38;100780.00;5109712;28;20394;-58
2021/06/19 03:44:59;;;;;;;9.10;3.58;;;;;;;31.83;25.78;100833.50;5109569;28;20031;-58
2021/06/19 03:47:25;;;;;;;9.18;4.03;;;;;;;32.16;25.62;100826.47;5109693;28;20035;-58
2021/06/19 03:49:51;;;;;;;4.72;3.20;;;;;;;32.67;24.86;100829.47;5109246;28;20426;-59
2021/06/19 03:52:16;;;;;;;4.68;3.40;;;;;;;33.05;24.39;100841.00;5109832;28;20024;-61
2021/06/19 03:54:42;;;;;;;7.68;3.58;;;;;;;33.39;23.84;100840.19;5109908;28;20031;-60
2021/06/19 03:57:08;;;;;;;5.22;3.65;;;;;;;33.65;23.74;100844.28;5109859;28;20035;-60
2021/06/19 03:59:34;;;;;;;8.45;3.25;;;;;;;34.01;22.74;100849.53;5109593;28;20673;-57
2021/06/19 04:02:00;;;;;;;5.50;3.15;;;;;;;34.38;22.00;100835.00;5110080;28;20031;-57
2021/06/19 04:04:26;;;;;;;6.53;3.15;;;;;;;34.83;21.80;100840.53;5109553;28;20559;-58
2021/06/19 04:06:51;;;;;;;6.07;2.60;;;;;;;35.30;20.98;100851.03;5108533;28;20043;-58
2021/06/19 04:09:17;;;;;;;4.38;2.78;;;;;;;35.83;20.49;100833.59;5110114;28;20031;-59
2021/06/19 04:11:42;;;;;;;4.38;2.50;;;;;;;36.46;19.79;100848.69;5108131;28;20055;-60
2021/06/19 04:14:09;;;;;;;6.43;2.85;;;;;;;36.69;19.08;100796.34;5109507;28;20070;-59
2021/06/19 04:16:34;;;;;;;5.45;2.70;;;;;;;37.39;18.21;100842.47;5109739;28;20200;-59
2021/06/19 04:19:00;;;;;;;5.25;2.65;;;;;;;37.58;18.05;100821.22;5108335;28;20451;-61
2021/06/19 04:21:25;;;;;;;6.00;2.72;;;;;;;38.30;17.60;100844.50;5108781;28;20039;-59
2021/06/19 04:23:51;;;;;;;2.47;2.15;;;;;;;39.09;16.99;100849.41;5093373;28;20567;-59
2021/06/19 04:26:16;;;;;;;3.35;2.22;;;;;;;39.78;15.94;100854.13;5093090;28;20035;-59
2021/06/19 04:28:42;;;;;;;6.10;2.28;;;;;;;40.18;15.54;100851.19;5092729;28;20032;-57
2021/06/19 04:31:07;;;;;;;3.92;2.47;;;;;;;40.63;15.30;100853.69;5093281;28;20124;-59
2021/06/19 04:33:33;;;;;;;6.65;2.35;;;;;;;41.04;14.73;100853.09;5092952;28;20046;-58
2021/06/19 04:35:58;;;;;;;3.13;2.00;;;;;;;41.55;13.87;100847.75;5092452;28;20076;-59
2021/06/19 04:38:24;;;;;;;3.33;2.30;;;;;;;42.20;13.50;100850.75;5092488;28;20042;-58
2021/06/19 04:43:24;;;;;;;2.55;2.35;;;;;;;43.13;12.94;100859.06;5093207;28;20157;-58
2021/06/19 04:45:49;;;;;;;4.95;2.30;;;;;;;43.19;12.31;100852.19;5092347;28;20523;-58
2021/06/19 04:48:15;;;;;;;3.10;2.20;;;;;;;43.53;12.25;100855.53;5092126;28;20127;-58
2021/06/19 04:50:40;;;;;;;4.00;1.95;;;;;;;44.00;11.64;100853.09;5092399;28;20119;-58
2021/06/19 04:53:07;;;;;;;2.22;2.00;;;;;;;44.52;10.97;100845.13;5092915;28;20157;-60
2021/06/19 04:55:32;;;;;;;2.63;2.17;;;;;;;44.89;10.62;100800.44;5092018;28;20028;-58
2021/06/19 04:58:02;;;;;;;3.42;2.30;;;;;;;45.71;10.07;100850.50;5092235;28;20047;-58
2021/06/19 05:00:28;;;;;;;2.90;2.50;;;;;;;46.12;10.03;100848.16;5092614;28;20067;-61
2021/06/19 05:02:55;;;;;;;3.20;1.80;;;;;;;46.27;9.44;100849.56;5092889;28;20074;-61
2021/06/19 05:05:21;;;;;;;3.53;1.90;;;;;;;46.41;9.29;100837.97;5092010;28;20159;-58
2021/06/19 05:07:46;;;;;;;2.38;2.17;;;;;;;46.64;9.51;100846.16;5092204;28;20059;-57
2021/06/19 05:10:13;;;;;;;2.33;2.13;;;;;;;46.90;8.83;100853.63;5091032;28;20427;-59
2021/06/19 05:12:42;;;;;;;2.85;2.20;;;;;;;47.18;9.13;100838.00;5092325;28;20525;-58
2021/06/19 05:15:09;;;;;;;1.95;1.85;;;;;;;47.40;8.62;100842.44;5092036;28;20036;-58
2021/06/19 05:17:34;;;;;;;2.08;1.88;;;;;;;47.85;8.33;100844.41;5091465;28;20038;-59
2021/06/19 05:20:00;;;;;;;4.35;1.98;;;;;;;48.43;7.92;100840.59;5091935;28;20031;-58
2021/06/19 05:22:26;;;;;;;2.63;2.33;;;;;;;48.94;7.18;100839.22;5101649;28;20032;-59
2021/06/19 05:24:51;;;;;;;2.00;1.80;;;;;;;49.41;7.33;100836.84;5112101;28;20027;-61
2021/06/19 05:27:17;;;;;;;2.40;2.00;;;;;;;49.95;6.78;100837.44;5112201;28;20040;-61
2021/06/19 05:29:43;;;;;;;3.78;2.13;;;;;;;50.56;6.36;100823.72;5112256;28;20059;-60
2021/06/19 05:32:09;;;;;;;2.60;2.25;;;;;;;51.11;6.17;100829.34;5111729;28;20433;-60
2021/06/19 05:34:35;;;;;;;4.10;2.45;;;;;;;51.26;6.17;100838.97;5111939;28;20032;-59
2021/06/19 05:37:00;;;;;;;2.75;2.20;;;;;;;51.19;5.97;100786.69;5111676;28;20561;-60
2021/06/19 05:39:26;;;;;;;3.60;2.50;;;;;;;51.65;6.60;100829.50;5111819;28;20063;-60
2021/06/19 05:41:51;;;;;;;3.88;2.38;;;;;;;51.32;5.84;100788.19;5112124;28;20036;-61
2021/06/19 05:44:17;;;;;;;2.75;2.10;;;;;;;51.55;6.15;100822.38;5111828;28;20110;-61
2021/06/19 05:46:43;;;;;;;4.65;2.42;;;;;;;51.88;5.73;100822.09;5111272;28;20430;-61
2021/06/19 05:49:08;;;;;;;3.85;2.22;;;;;;;52.32;5.35;100823.56;5112195;28;20054;-61
2021/06/19 05:51:34;;;;;;;2.22;2.03;;;;;;;52.64;5.51;100823.97;5111432;28;20170;-59
2021/06/19 05:54:01;;;;;;;3.00;1.92;;;;;;;52.98;4.96;100831.72;5110518;28;20043;-60
2021/06/19 05:56:26;;;;;;;4.13;2.33;;;;;;;53.05;4.82;100819.56;5105185;28;20423;-60
2021/06/19 05:58:52;;;;;;;2.20;2.00;;;;;;;53.28;5.01;100810.78;5110985;28;20032;-59
2021/06/19 06:01:18;;;;;;;2.20;1.95;;;;;;;53.04;5.25;100806.47;5110824;28;20063;-59
2021/06/19 06:03:43;;;;;;;4.93;2.08;;;;;;;52.99;5.24;100803.94;5111960;28;20591;-59
2021/06/19 06:06:09;;;;;;;3.10;2.40;;;;;;;53.25;5.16;100805.88;5109823;28;20479;-60
2021/06/19 06:08:34;;;;;;;3.53;2.13;;;;;;;53.75;4.53;100811.19;5111313;28;20057;-59
2021/06/19 06:11:00;;;;;;;3.25;2.40;;;;;;;54.12;4.53;100806.50;5111414;28;20035;-59
2021/06/19 06:13:26;;;;;;;3.45;2.55;;;;;;;54.55;3.87;100810.81;5111316;28;20047;-61
2021/06/19 06:15:52;;;;;;;4.65;2.40;;;;;;;54.99;4.10;100808.88;5110488;28;20084;-59
2021/06/19 06:18:17;;;;;;;6.90;3.10;;;;;;;55.55;3.88;100811.41;5111482;28;20043;-60
2021/06/19 06:20:43;;;;;;;3.60;2.30;;;;;;;55.76;3.42;100801.94;5109879;28;20118;-60
2021/06/19 06:23:08;;;;;;;3.47;2.63;;;;;;;56.00;3.33;100803.16;5095676;28;20110;-60
2021/06/19 06:25:34;;;;;;;4.25;3.28;;;;;;;56.50;3.50;100812.81;5090538;28;20040;-60
2021/06/19 06:27:59;;;;;;;4.03;3.30;;;;;;;56.97;2.86;100806.78;5090844;28;20035;-59
2021/06/19 06:30:25;;;;;;;3.60;3.25;;;;;;;57.25;2.98;100810.66;5091222;28;20505;-60
2021/06/19 06:32:51;;;;;;;5.25;3.30;;;;;;;57.19;2.60;100793.06;5090923;28;20123;-60
2021/06/19 06:35:16;;;;;;;4.68;4.25;;;;;;;57.66;2.45;100806.22;5090779;28;20035;-59
2021/06/19 06:37:42;;;;;;;4.05;3.70;;;;;;;57.26;2.31;100780.63;5090873;28;20069;-60
2021/06/19 06:40:10;;;;;;;3.83;3.53;;;;;;;57.18;2.66;100814.44;5090542;28;20044;-61
2021/06/19 06:42:40;;;;;;;4.38;3.78;;;;;;;56.86;2.61;100809.72;5090156;28;20035;-60
2021/06/19 06:45:07;;;;;;;5.68;3.20;;;;;;;56.90;2.55;100809.69;5089531;28;20031;-60
2021/06/19 06:47:33;;;;;;;6.78;3.50;;;;;;;56.62;2.44;100791.38;5090171;28;20050;-60
2021/06/19 06:49:58;;;;;;;4.05;3.78;;;;;;;56.59;2.63;100790.16;5089981;28;20032;-59
2021/06/19 06:52:24;;;;;;;4.32;3.78;;;;;;;56.58;2.85;100794.25;5090109;28;20068;-59
2021/06/19 06:54:49;;;;;;;4.32;3.92;;;;;;;56.73;2.39;100795.00;5090168;28;20774;-59
2021/06/19 06:57:15;;;;;;;4.43;4.03;;;;;;;56.55;2.90;100789.34;5089211;28;20036;-59
2021/06/19 06:59:41;;;;;;;3.92;3.63;;;;;;;56.54;2.87;100787.72;5090192;28;20490;-60
2021/06/19 07:02:06;;;;;;;4.82;4.25;;;;;;;56.60;2.85;100780.28;5090065;28;20031;-60
2021/06/19 07:04:33;;;;;;;5.72;4.28;;;;;;;56.92;2.36;100779.28;5090028;28;20034;-60
2021/06/19 07:06:59;;;;;;;6.53;4.13;;;;;;;56.84;2.33;100746.03;5090634;28;20047;-60
2021/06/19 07:09:25;;;;;;;5.18;4.28;;;;;;;57.32;2.12;100750.19;5089113;28;20032;-59
2021/06/19 07:11:50;;;;;;;5.07;4.57;;;;;;;57.73;2.55;100773.63;5092314;28;20509;-60
2021/06/19 07:14:17;;;;;;;5.38;4.28;;;;;;;57.76;2.11;100788.00;5089785;28;20292;-60
2021/06/19 07:16:42;;;;;;;5.95;3.80;;;;;;;57.86;2.26;100782.53;5090368;28;20130;-61
2021/06/19 07:19:08;;;;;;;5.50;4.38;;;;;;;57.48;2.22;100760.31;5088849;28;20399;-61
2021/06/19 07:21:34;;;;;;;7.40;5.07;;;;;;;58.01;2.45;100784.03;5091677;28;20036;-59
2021/06/19 07:23:59;;;;;;;5.72;4.53;;;;;;;58.59;2.02;100776.69;5110390;28;20752;-61
2021/06/19 07:26:24;;;;;;;5.68;5.22;;;;;;;59.14;1.65;100754.41;5102740;28;20547;-60
2021/06/19 07:28:50;;;;;;;5.95;5.53;;;;;;;60.04;1.26;100769.19;5099321;28;20035;-60
2021/06/19 07:31:15;;;;;;;7.07;5.32;;;;;;;60.46;0.99;100768.69;5089215;28;20051;-59
2021/06/19 07:33:42;;;;;;;6.47;5.97;;;;;;;60.72;0.53;100776.78;5089462;28;20040;-60
2021/06/19 07:36:08;;;;;;;6.70;6.10;;;;;;;60.75;1.37;100764.31;5089151;28;20487;-59
2021/06/19 07:38:34;;;;;;;6.68;6.18;;;;;;;61.10;0.48;100766.75;5089406;28;20042;-59
2021/06/19 07:41:00;;;;;;;8.23;7.47;;;;;;;61.45;0.89;100764.97;5089142;28;20487;-60
2021/06/19 07:43:25;;;;;;;7.95;7.45;;;;;;;61.35;1.07;100773.97;5081889;28;20567;-60
2021/06/19 07:45:52;;;;;;;8.10;7.43;;;;;;;60.48;0.53;100762.44;5098780;28;20038;-60
2021/06/19 07:48:18;;;;;;;9.63;6.82;;;;;;;59.70;0.90;100773.16;5102112;28;20039;-59
2021/06/19 07:50:44;;;;;;;7.55;7.05;;;;;;;58.99;1.09;100765.38;5100955;28;20055;-59
2021/06/19 07:53:09;;;;;;;7.07;6.63;;;;;;;58.34;1.73;100725.97;5109603;28;20116;-61
2021/06/19 07:55:35;;;;;;;7.97;6.40;;;;;;;58.61;1.62;100756.91;5110423;28;20077;-59
2021/06/19 07:58:00;;;;;;;7.53;6.25;;;;;;;58.48;1.55;100743.03;5112078;28;20115;-60
2021/06/19 08:00:26;;;;;;;6.07;5.57;;;;;;;58.31;1.95;100750.72;5112677;28;20031;-60
2021/06/19 08:02:52;;;;;;;6.63;5.95;;;;;;;57.10;2.12;100711.34;5113110;28;20028;-59
2021/06/19 08:05:18;;;;;;;6.03;5.35;;;;;;;56.35;2.54;100735.28;5112043;28;20035;-59
2021/06/19 08:07:43;;;;;;;6.07;5.57;;;;;;;55.68;2.56;100696.97;5112991;28;20521;-59
2021/06/19 08:10:10;;;;;;;5.30;4.80;;;;;;;55.88;3.09;100751.84;5113158;28;20395;-59
2021/06/19 08:12:37;;;;;;;6.25;5.03;;;;;;;55.69;3.13;100742.47;5113342;28;20056;-59
2021/06/19 08:15:04;;;;;;;7.25;4.75;;;;;;;55.35;2.99;100734.34;5113649;28;20047;-60
2021/06/19 08:17:29;;;;;;;4.90;4.32;;;;;;;54.90;3.12;100740.47;5113240;28;20088;-61
2021/06/19 08:19:55;;;;;;;5.00;4.53;;;;;;;54.48;3.95;100737.09;5112947;28;20031;-60
2021/06/19 08:22:20;;;;;;;4.20;3.90;;;;;;;53.72;3.84;100731.84;5104184;28;20718;-60
2021/06/19 08:24:47;;;;;;;3.88;3.15;;;;;;;51.90;4.71;100736.91;5092698;28;20063;-60
2021/06/19 08:27:13;;;;;;;5.10;2.60;;;;;;;48.98;6.09;100719.97;5091748;28;20148;-60
2021/06/19 08:29:39;;;;;;;3.70;2.47;;;;;;;45.96;8.24;100731.06;5091645;28;20487;-59
2021/06/19 08:32:07;;;;;;;5.13;2.55;;;;;;;43.40;9.63;100733.28;5091819;28;20028;-60
2021/06/19 08:34:33;;;;;;;7.35;2.47;;;;;;;41.02;11.49;100731.81;5090059;28;20096;-61
2021/06/19 08:36:59;;;;;;;4.80;2.20;;;;;;;39.15;12.79;100713.81;5091894;28;20039;-60
2021/06/19 08:39:24;;;;;;;3.85;2.53;;;;;;;37.67;13.66;100700.53;5090988;28;20039;-58
2021/06/19 08:41:54;;;;;;;4.03;2.47;;;;;;;36.63;14.88;100748.06;5091760;28;20403;-60
2021/06/19 08:44:24;;;;;;;5.03;2.10;;;;;;;35.47;15.92;100713.63;5092073;28;20039;-61
2021/06/19 08:46:51;;;;;;;2.95;2.10;;;;;;;34.60;16.56;100686.78;5092269;28;20483;-60
2021/06/19 08:49:18;;;;;;;6.32;2.05;;;;;;;34.26;16.96;100735.06;5092167;28;20032;-59
2021/06/19 08:51:44;;;;;;;2.75;1.88;;;;;;;33.60;17.68;100708.97;5092754;28;20475;-61
2021/06/19 08:54:09;;;;;;;4.43;2.20;;;;;;;33.02;18.60;100686.19;5091282;28;20140;-61
2021/06/19 08:56:35;;;;;;;3.88;1.92;;;;;;;32.98;18.96;100719.13;5092343;28;20454;-59
2021/06/19 08:59:01;;;;;;;3.53;1.75;;;;;;;32.76;20.04;100716.25;5092525;28;20463;-59
2021/06/19 09:01:27;;;;;;;4.00;1.90;;;;;;;32.63;20.01;100709.91;5092170;28;20035;-59
2021/06/19 09:03:52;;;;;;;4.10;2.20;;;;;;;32.42;20.12;100717.03;5092206;28;20944;-60
2021/06/19 09:06:28;;;;;;;2.88;2.03;;;;;;;31.97;20.64;100679.88;5091717;28;20036;-59
2021/06/19 09:09:08;;;;;;;;;;;;;;;32.32;19.36;100719.59;5091660;28;20422;-60
2021/06/19 09:11:38;;;;;;;4.30;1.90;;;;;;;31.75;20.78;100679.66;5090905;28;19920;-60
2021/06/19 09:14:07;;;;;;;3.97;1.80;;;;;;;31.60;21.66;100672.72;5091167;28;20036;-60
2021/06/19 09:16:33;;;;;;;5.93;1.98;;;;;;;31.74;21.46;100716.72;5092129;28;20109;-55
2021/06/19 09:18:59;;;;;;;4.05;1.75;;;;;;;31.69;20.63;100700.84;5091745;28;20036;-58
2021/06/19 09:21:33;;;;;;;3.78;1.65;;;;;;;31.71;21.19;100700.59;5091907;28;20043;-59
2021/06/19 09:23:59;;;;;;;6.13;1.80;;;;;;;31.40;21.04;100675.03;5091525;28;20028;-60
2021/06/19 09:26:34;;;;;;;4.95;1.98;;;;;;;31.49;21.93;100706.78;5089306;28;20928;-61
2021/06/19 09:29:09;;;;;;;3.67;2.30;;;;;;;31.50;22.05;100703.78;5111146;28;20088;-58
2021/06/19 09:31:40;;;;;;;4.90;1.85;;;;;;;31.49;22.75;100691.03;5111885;28;20071;-58
2021/06/19 09:34:09;;;;;;;2.97;1.88;;;;;;;31.55;22.36;100689.19;5111957;28;20123;-61
2021/06/19 09:36:39;;;;;;;3.78;2.15;;;;;;;31.69;22.38;100700.00;5111762;28;20035;-60
2021/06/19 09:39:07;;;;;;;4.20;2.15;;;;;;;31.31;22.30;100627.53;5111776;28;20483;-61
2021/06/19 09:41:37;;;;;;;5.28;2.08;;;;;;;31.67;22.17;100699.41;5112257;28;20042;-60
2021/06/19 09:44:03;;;;;;;4.65;2.03;;;;;;;31.58;22.26;100693.41;5111708;28;20035;-60
2021/06/19 09:46:28;;;;;;;4.38;2.00;;;;;;;31.37;22.43;100673.59;5095187;28;20035;-60
2021/06/19 09:48:54;;;;;;;5.22;1.92;;;;;;;31.34;22.20;100697.03;5090951;28;20821;-61
2021/06/19 09:51:24;;;;;;;3.95;1.95;;;;;;;31.20;22.23;100682.59;5090906;28;20035;-61
2021/06/19 09:53:50;;;;;;;5.35;2.15;;;;;;;31.16;22.25;100686.91;5089651;28;20081;-59
2021/06/19 09:56:24;;;;;;;3.13;1.70;;;;;;;31.01;22.02;100665.28;5090937;28;20427;-58
2021/06/19 09:59:01;;;;;;;2.17;1.90;;;;;;;31.03;22.32;100671.41;5090777;28;20423;-59
2021/06/19 10:01:34;;;;;;;2.83;2.05;;;;;;;30.98;22.70;100674.03;5090233;28;20092;-59
2021/06/19 10:04:01;;;;;;;4.35;1.80;;;;;;;30.99;23.07;100680.41;5090669;28;20447;-59
2021/06/19 10:06:28;;;;;;;4.55;2.05;;;;;;;30.68;22.81;100614.19;5090236;28;20399;-57
2021/06/19 10:08:55;;;;;;;3.70;2.10;;;;;;;30.76;22.95;100611.06;5090435;28;20479;-58
2021/06/19 10:11:25;;;;;;;1.95;1.77;;;;;;;30.93;22.69;100635.22;5090360;28;20460;-60
2021/06/19 10:13:52;;;;;;;1.90;1.65;;;;;;;31.14;22.72;100663.34;5090693;28;20059;-60
2021/06/19 10:16:18;;;;;;;3.30;2.20;;;;;;;31.26;22.33;100664.22;5089171;28;20036;-60
2021/06/19 10:18:45;;;;;;;4.30;1.85;;;;;;;31.33;22.51;100667.69;5087923;28;20028;-60
2021/06/19 10:21:13;;;;;;;2.53;2.10;;;;;;;31.33;22.00;100666.84;5089725;28;20063;-59
2021/06/19 10:23:38;;;;;;;4.45;2.20;;;;;;;31.28;22.42;100659.28;5090278;28;20053;-57
2021/06/19 10:26:04;;;;;;;3.50;1.90;;;;;;;31.11;21.82;100637.00;5090724;28;20032;-58
2021/06/19 10:28:32;;;;;;;2.80;1.70;;;;;;;31.10;22.02;100656.59;5089835;28;20055;-60
2021/06/19 10:30:58;;;;;;;4.70;2.38;;;;;;;31.03;22.39;100649.28;5085530;28;20878;-61
2021/06/19 10:33:27;;;;;;;2.72;1.73;;;;;;;31.03;22.00;100646.50;5087517;28;20032;-60
2021/06/19 10:35:54;;;;;;;2.15;1.70;;;;;;;30.99;21.71;100655.50;5089554;28;20111;-58
2021/06/19 10:38:19;;;;;;;2.78;1.70;;;;;;;30.96;21.99;100637.50;5090571;28;20062;-60
2021/06/19 10:40:56;;;;;;;2.47;1.88;;;;;;;30.89;21.93;100614.66;5089803;28;20071;-58
2021/06/19 10:43:23;;;;;;;4.80;1.98;;;;;;;31.03;21.44;100634.63;5089762;28;20055;-61
2021/06/19 10:45:52;;;;;;;3.63;1.88;;;;;;;31.16;21.42;100644.59;5090260;28;20399;-59
2021/06/19 10:48:29;;;;;;;3.67;1.90;;;;;;;31.21;21.25;100642.78;5090397;28;20126;-59
2021/06/19 10:51:22;;;;;;;3.33;1.98;;;;;;;31.16;21.35;100623.28;5096031;28;20107;-60
2021/06/19 10:54:23;;;;;;;4.28;1.60;;;;;;;31.25;21.51;100626.56;5092381;28;20047;-61
2021/06/19 10:56:57;;;;;;;3.97;1.83;;;;;;;31.24;21.77;100646.19;5103530;28;20091;-61
2021/06/19 10:59:34;;;;;;;3.45;1.58;;;;;;;31.13;21.95;100639.56;5090326;28;20035;-59
2021/06/19 11:02:02;;;;;;;4.95;1.80;;;;;;;31.00;21.99;100640.63;5089649;28;20040;-59
2021/06/19 11:04:37;;;;;;;3.08;1.60;;;;;;;30.97;22.23;100633.66;5089317;28;20059;-61
2021/06/19 11:07:08;;;;;;;3.05;2.05;;;;;;;30.96;22.32;100631.13;5089357;28;20119;-59
2021/06/19 11:09:48;;;;;;;4.90;1.65;;;;;;;31.03;22.60;100627.16;5088713;28;20063;-60
2021/06/19 11:12:16;;;;;;;2.47;1.50;;;;;;;31.07;22.98;100627.53;5089016;28;20173;-60
2021/06/19 11:14:42;;;;;;;2.38;1.95;;;;;;;31.12;22.77;100624.03;5089398;28;20105;-59
2021/06/19 11:17:09;;;;;;;1.80;1.70;;;;;;;31.09;23.08;100628.13;5090183;28;20470;-59
2021/06/19 11:19:49;;;;;;;4.60;1.98;;;;;;;31.03;23.24;100632.69;5090135;28;20050;-59
2021/06/19 11:23:02;;;;;;;2.45;1.83;;;;;;;31.11;23.22;100619.56;5097575;28;20059;-59
2021/06/19 11:25:50;;;;;;;2.40;1.80;;;;;;;30.99;23.74;100617.66;5109788;28;20057;-58
2021/06/19 11:28:18;;;;;;;3.53;1.90;;;;;;;30.90;23.82;100616.34;5110316;28;20124;-61